createdAt,value
2017-11-07T00:00:18.771Z,89.8
2017-11-07T00:01:18.462Z,90.37
2017-11-07T00:02:18.479Z,90.66
2017-11-07T00:03:18.819Z,90.56
2017-11-07T00:04:18.842Z,90.75
2017-11-07T00:05:18.529Z,90.52
2017-11-07T00:06:18.872Z,90.09
2017-11-07T00:07:18.884Z,90.33
2017-11-07T00:08:18.903Z,90
2017-11-07T00:09:18.970Z,90.33
2017-11-07T00:10:18.612Z,90.42
2017-11-07T00:11:18.630Z,90.28
2017-11-07T00:12:18.966Z,90.09
2017-11-07T00:13:18.986Z,90.56
2017-11-07T00:14:19.048Z,90.56
2017-11-07T00:15:19.018Z,90.47
2017-11-07T00:16:19.044Z,90.47
2017-11-07T00:17:19.054Z,90.28
2017-11-07T00:18:18.754Z,90.28
2017-11-07T00:19:19.082Z,90.85
2017-11-07T00:20:18.778Z,90.47
2017-11-07T00:21:19.118Z,90.47
2017-11-07T00:22:19.134Z,90.56
2017-11-07T00:23:19.148Z,90.56
2017-11-07T00:24:18.896Z,90.66
2017-11-07T00:25:19.188Z,90.75
2017-11-07T00:26:18.877Z,91.42
2017-11-07T00:27:18.895Z,91.8
2017-11-07T00:28:19.235Z,91.33
2017-11-07T00:29:19.247Z,91.13
2017-11-07T00:30:19.468Z,91.04
2017-11-07T00:31:19.281Z,91.13
2017-11-07T00:32:19.299Z,90.66
2017-11-07T00:33:19.358Z,90.56
2017-11-07T00:34:19.337Z,90.19
2017-11-07T00:35:19.346Z,90.37
2017-11-07T00:36:19.372Z,90.37
2017-11-07T00:37:19.388Z,90.47
2017-11-07T00:38:19.397Z,90.37
2017-11-07T00:39:19.463Z,90.37
2017-11-07T00:40:19.437Z,90.75
2017-11-07T00:41:19.124Z,90.75
2017-11-07T00:42:19.467Z,91.42
2017-11-07T00:43:19.161Z,90.85
2017-11-07T00:44:19.498Z,90.75
2017-11-07T00:45:19.192Z,90
2017-11-07T00:46:19.528Z,90.75
2017-11-07T00:47:19.225Z,90.66
2017-11-07T00:48:19.569Z,90.37
2017-11-07T00:49:19.257Z,90.28
2017-11-07T00:50:19.274Z,90.85
2017-11-07T00:51:19.610Z,90.56
2017-11-07T00:52:19.629Z,90.47
2017-11-07T00:53:19.643Z,90.66
2017-11-07T00:54:19.390Z,90
2017-11-07T00:55:19.678Z,89.8
2017-11-07T00:56:19.696Z,90.19
2017-11-07T00:57:19.714Z,90.19
2017-11-07T00:58:19.413Z,90
2017-11-07T00:59:19.745Z,90.19
2017-11-07T01:00:19.762Z,90.19
2017-11-07T01:01:19.779Z,90.28
2017-11-07T01:02:19.473Z,90
2017-11-07T01:03:19.809Z,90.37
2017-11-07T01:04:19.506Z,90.37
2017-11-07T01:05:19.847Z,90.56
2017-11-07T01:06:19.539Z,90.37
2017-11-07T01:07:19.878Z,89.9
2017-11-07T01:08:19.898Z,90.19
2017-11-07T01:09:19.975Z,89.8
2017-11-07T01:10:19.932Z,90
2017-11-07T01:11:19.621Z,90
2017-11-07T01:12:19.639Z,90.28
2017-11-07T01:13:19.983Z,90.37
2017-11-07T01:14:19.672Z,90.85
2017-11-07T01:15:20.011Z,91.04
2017-11-07T01:16:20.041Z,91.04
2017-11-07T01:17:20.043Z,90.37
2017-11-07T01:18:19.740Z,90.75
2017-11-07T01:19:19.755Z,90.19
2017-11-07T01:20:20.097Z,89.52
2017-11-07T01:21:20.108Z,90.19
2017-11-07T01:22:20.122Z,89.8
2017-11-07T01:23:20.141Z,89.9
2017-11-07T01:24:20.211Z,90.47
2017-11-07T01:25:19.853Z,90.28
2017-11-07T01:26:19.868Z,90.37
2017-11-07T01:27:19.886Z,90.33
2017-11-07T01:28:20.234Z,90.04
2017-11-07T01:29:20.240Z,90.14
2017-11-07T01:30:19.937Z,90.99
2017-11-07T01:31:20.275Z,90.23
2017-11-07T01:32:20.299Z,90.23
2017-11-07T01:33:19.987Z,90.23
2017-11-07T01:34:20.007Z,90.52
2017-11-07T01:35:20.039Z,90.04
2017-11-07T01:36:20.359Z,89.66
2017-11-07T01:37:20.380Z,89.56
2017-11-07T01:38:20.397Z,89.85
2017-11-07T01:39:20.411Z,90.33
2017-11-07T01:40:20.427Z,90.04
2017-11-07T01:41:20.173Z,90.04
2017-11-07T01:42:20.462Z,89.85
2017-11-07T01:43:20.155Z,90.04
2017-11-07T01:44:20.498Z,90.04
2017-11-07T01:45:20.517Z,90.42
2017-11-07T01:46:20.531Z,90.85
2017-11-07T01:47:20.224Z,90.89
2017-11-07T01:48:20.563Z,90.52
2017-11-07T01:49:20.578Z,91.37
2017-11-07T01:50:20.273Z,91.18
2017-11-07T01:51:20.296Z,91.37
2017-11-07T01:52:20.631Z,92.32
2017-11-07T01:53:20.645Z,91.85
2017-11-07T01:54:20.660Z,90.99
2017-11-07T01:55:20.676Z,91.28
2017-11-07T01:56:20.745Z,91.08
2017-11-07T01:57:20.712Z,91.56
2017-11-07T01:58:20.406Z,91.66
2017-11-07T01:59:20.421Z,91.18
2017-11-07T02:00:20.771Z,91.47
2017-11-07T02:01:20.470Z,91.47
2017-11-07T02:02:20.796Z,91.37
2017-11-07T02:03:20.489Z,91.13
2017-11-07T02:04:20.833Z,91.99
2017-11-07T02:05:20.523Z,91.8
2017-11-07T02:06:20.539Z,91.71
2017-11-07T02:07:20.876Z,91.89
2017-11-07T02:08:20.570Z,91.99
2017-11-07T02:09:20.906Z,91.99
2017-11-07T02:10:20.606Z,91.8
2017-11-07T02:11:20.995Z,92.56
2017-11-07T02:12:20.967Z,92.66
2017-11-07T02:13:20.653Z,92.66
2017-11-07T02:14:20.994Z,92.66
2017-11-07T02:15:21.030Z,92.66
2017-11-07T02:16:20.701Z,92.66
2017-11-07T02:17:21.045Z,92.85
2017-11-07T02:18:21.090Z,92.94
2017-11-07T02:19:21.084Z,93.13
2017-11-07T02:20:21.089Z,93.23
2017-11-07T02:21:20.783Z,93.23
2017-11-07T02:22:20.800Z,93.7
2017-11-07T02:23:21.145Z,93.79
2017-11-07T02:24:21.154Z,93.41
2017-11-07T02:25:21.169Z,93.6
2017-11-07T02:26:21.236Z,93.51
2017-11-07T02:27:21.200Z,93.79
2017-11-07T02:28:21.218Z,93.7
2017-11-07T02:29:20.912Z,93.7
2017-11-07T02:30:20.928Z,93.79
2017-11-07T02:31:20.945Z,93.04
2017-11-07T02:32:21.295Z,93.23
2017-11-07T02:33:21.310Z,93.89
2017-11-07T02:34:20.994Z,93.7
2017-11-07T02:35:21.337Z,93.32
2017-11-07T02:36:21.362Z,93.51
2017-11-07T02:37:21.382Z,92.94
2017-11-07T02:38:21.055Z,93.32
2017-11-07T02:39:21.402Z,93.89
2017-11-07T02:40:21.411Z,93.23
2017-11-07T02:41:21.256Z,93.13
2017-11-07T02:42:21.444Z,93.13
2017-11-07T02:43:21.462Z,92.94
2017-11-07T02:44:21.481Z,92.66
2017-11-07T02:45:21.495Z,92.94
2017-11-07T02:46:21.188Z,93.23
2017-11-07T02:47:21.526Z,93.6
2017-11-07T02:48:21.552Z,93.89
2017-11-07T02:49:21.556Z,93.32
2017-11-07T02:50:21.575Z,93.13
2017-11-07T02:51:21.605Z,93.79
2017-11-07T02:52:21.608Z,93.51
2017-11-07T02:53:21.300Z,93.32
2017-11-07T02:54:21.635Z,93.23
2017-11-07T02:55:21.332Z,93.23
2017-11-07T02:56:21.741Z,93.23
2017-11-07T02:57:21.695Z,93.32
2017-11-07T02:58:21.703Z,93.6
2017-11-07T02:59:21.398Z,93.79
2017-11-07T03:00:21.411Z,93.32
2017-11-07T03:01:21.479Z,93.6
2017-11-07T03:02:21.765Z,93.79
2017-11-07T03:03:21.465Z,93.79
2017-11-07T03:04:21.494Z,93.51
2017-11-07T03:05:21.828Z,93.6
2017-11-07T03:06:21.509Z,94.08
2017-11-07T03:07:21.848Z,93.7
2017-11-07T03:08:21.864Z,93.99
2017-11-07T03:09:21.557Z,93.79
2017-11-07T03:10:21.575Z,93.99
2017-11-07T03:11:21.963Z,93.6
2017-11-07T03:12:21.930Z,93.7
2017-11-07T03:13:21.942Z,93.41
2017-11-07T03:14:21.644Z,93.41
2017-11-07T03:15:21.655Z,93.79
2017-11-07T03:16:21.671Z,93.51
2017-11-07T03:17:21.689Z,93.32
2017-11-07T03:18:21.704Z,93.79
2017-11-07T03:19:22.040Z,93.89
2017-11-07T03:20:22.056Z,93.32
2017-11-07T03:21:21.753Z,93.32
2017-11-07T03:22:21.768Z,93.23
2017-11-07T03:23:22.128Z,93.13
2017-11-07T03:24:22.127Z,93.23
2017-11-07T03:25:21.818Z,93.6
2017-11-07T03:26:22.203Z,93.7
2017-11-07T03:27:22.173Z,93.6
2017-11-07T03:28:21.865Z,93.89
2017-11-07T03:29:22.206Z,93.7
2017-11-07T03:30:21.902Z,93.41
2017-11-07T03:31:22.244Z,93.51
2017-11-07T03:32:22.256Z,93.89
2017-11-07T03:33:22.271Z,93.79
2017-11-07T03:34:22.285Z,93.04
2017-11-07T03:35:21.980Z,92.85
2017-11-07T03:36:22.336Z,93.41
2017-11-07T03:37:22.339Z,93.13
2017-11-07T03:38:22.350Z,92.75
2017-11-07T03:39:22.046Z,92.75
2017-11-07T03:40:22.408Z,93.23
2017-11-07T03:41:22.129Z,93.08
2017-11-07T03:42:22.414Z,92.7
2017-11-07T03:43:22.112Z,92.41
2017-11-07T03:44:22.446Z,92.03
2017-11-07T03:45:22.463Z,91.8
2017-11-07T03:46:22.480Z,92.08
2017-11-07T03:47:22.497Z,92.27
2017-11-07T03:48:22.514Z,91.85
2017-11-07T03:49:22.532Z,92.13
2017-11-07T03:50:22.227Z,92.41
2017-11-07T03:51:22.261Z,92.18
2017-11-07T03:52:22.257Z,92.66
2017-11-07T03:53:22.596Z,92.32
2017-11-07T03:54:22.291Z,91.85
2017-11-07T03:55:22.306Z,92.46
2017-11-07T03:56:22.374Z,92.94
2017-11-07T03:57:22.662Z,92.75
2017-11-07T03:58:22.358Z,92.66
2017-11-07T03:59:22.373Z,92.75
2017-11-07T04:00:22.716Z,92.37
2017-11-07T04:01:22.730Z,92.66
2017-11-07T04:02:22.432Z,92.27
2017-11-07T04:03:22.445Z,92.13
2017-11-07T04:04:22.778Z,92.46
2017-11-07T04:05:22.807Z,92.08
2017-11-07T04:06:22.811Z,92.56
2017-11-07T04:07:22.831Z,92.85
2017-11-07T04:08:22.523Z,92.94
2017-11-07T04:09:22.538Z,92.85
2017-11-07T04:10:22.875Z,92.66
2017-11-07T04:11:22.893Z,92.56
2017-11-07T04:12:22.912Z,92.94
2017-11-07T04:13:22.933Z,93.13
2017-11-07T04:14:22.960Z,92.85
2017-11-07T04:15:22.960Z,92.94
2017-11-07T04:16:22.980Z,93.32
2017-11-07T04:17:22.669Z,93.04
2017-11-07T04:18:23.015Z,93.13
2017-11-07T04:19:22.704Z,93.41
2017-11-07T04:20:23.044Z,93.23
2017-11-07T04:21:22.735Z,93.41
2017-11-07T04:22:22.753Z,93.51
2017-11-07T04:23:23.088Z,93.7
2017-11-07T04:24:23.110Z,93.51
2017-11-07T04:25:23.123Z,93.6
2017-11-07T04:26:23.137Z,93.79
2017-11-07T04:27:23.155Z,93.79
2017-11-07T04:28:22.848Z,93.32
2017-11-07T04:29:23.237Z,93.51
2017-11-07T04:30:22.882Z,93.79
2017-11-07T04:31:23.220Z,93.89
2017-11-07T04:32:22.914Z,93.7
2017-11-07T04:33:23.250Z,93.79
2017-11-07T04:34:23.287Z,93.41
2017-11-07T04:35:23.324Z,93.32
2017-11-07T04:36:23.302Z,93.7
2017-11-07T04:37:22.997Z,93.6
2017-11-07T04:38:23.336Z,93.7
2017-11-07T04:39:23.355Z,93.6
2017-11-07T04:40:23.044Z,93.51
2017-11-07T04:41:23.384Z,94.37
2017-11-07T04:42:23.423Z,94.56
2017-11-07T04:43:23.420Z,94.27
2017-11-07T04:44:23.161Z,94.08
2017-11-07T04:45:23.449Z,93.51
2017-11-07T04:46:23.139Z,94.18
2017-11-07T04:47:23.480Z,93.84
2017-11-07T04:48:23.494Z,95.17
2017-11-07T04:49:23.514Z,94.84
2017-11-07T04:50:23.204Z,94.74
2017-11-07T04:51:23.544Z,94.08
2017-11-07T04:52:23.557Z,93.89
2017-11-07T04:53:23.575Z,94.27
2017-11-07T04:54:23.270Z,94.37
2017-11-07T04:55:23.292Z,94.7
2017-11-07T04:56:23.636Z,94.89
2017-11-07T04:57:23.316Z,95.12
2017-11-07T04:58:23.332Z,94.74
2017-11-07T04:59:23.717Z,94.37
2017-11-07T05:00:23.687Z,94.23
2017-11-07T05:01:23.382Z,94.79
2017-11-07T05:02:23.720Z,93.89
2017-11-07T05:03:23.413Z,94.65
2017-11-07T05:04:23.780Z,94.37
2017-11-07T05:05:23.770Z,93.89
2017-11-07T05:06:23.785Z,94.27
2017-11-07T05:07:23.800Z,94.37
2017-11-07T05:08:23.499Z,93.89
2017-11-07T05:09:23.510Z,94.08
2017-11-07T05:10:23.866Z,94.27
2017-11-07T05:11:23.545Z,93.6
2017-11-07T05:12:23.886Z,93.41
2017-11-07T05:13:23.900Z,93.99
2017-11-07T05:14:23.979Z,94.18
2017-11-07T05:15:24.040Z,94.27
2017-11-07T05:16:23.626Z,94.23
2017-11-07T05:17:23.964Z,94.18
2017-11-07T05:18:23.989Z,94.13
2017-11-07T05:19:23.994Z,94.89
2017-11-07T05:20:23.691Z,94.98
2017-11-07T05:21:24.029Z,95.36
2017-11-07T05:22:24.058Z,94.93
2017-11-07T05:23:23.739Z,94.6
2017-11-07T05:24:24.075Z,94.84
2017-11-07T05:25:24.095Z,94.93
2017-11-07T05:26:23.785Z,94.42
2017-11-07T05:27:24.131Z,94.65
2017-11-07T05:28:24.140Z,94.56
2017-11-07T05:29:23.909Z,94.56
2017-11-07T05:30:24.179Z,94.74
2017-11-07T05:31:23.903Z,94.65
2017-11-07T05:32:23.884Z,94.74
2017-11-07T05:33:24.345Z,94.08
2017-11-07T05:34:23.916Z,94.08
2017-11-07T05:35:23.934Z,93.99
2017-11-07T05:36:23.949Z,94.46
2017-11-07T05:37:24.298Z,94.27
2017-11-07T05:38:23.983Z,94.08
2017-11-07T05:39:24.327Z,94.08
2017-11-07T05:40:24.338Z,94.46
2017-11-07T05:41:24.351Z,94.74
2017-11-07T05:42:24.370Z,94.56
2017-11-07T05:43:24.386Z,94.56
2017-11-07T05:44:24.132Z,94.74
2017-11-07T05:45:24.101Z,94.7
2017-11-07T05:46:24.118Z,94.98
2017-11-07T05:47:24.450Z,95.46
2017-11-07T05:48:24.478Z,94.79
2017-11-07T05:49:24.488Z,94.84
2017-11-07T05:50:24.176Z,95.12
2017-11-07T05:51:24.515Z,94.56
2017-11-07T05:52:24.540Z,94.46
2017-11-07T05:53:24.547Z,94.65
2017-11-07T05:54:24.561Z,95.22
2017-11-07T05:55:24.577Z,94.84
2017-11-07T05:56:24.592Z,94.84
2017-11-07T05:57:24.287Z,95.22
2017-11-07T05:58:24.305Z,94.84
2017-11-07T05:59:24.690Z,95.03
2017-11-07T06:00:24.659Z,95.17
2017-11-07T06:01:24.673Z,95.08
2017-11-07T06:02:24.693Z,95.08
2017-11-07T06:03:24.721Z,95.08
2017-11-07T06:04:24.403Z,95.41
2017-11-07T06:05:24.418Z,95.32
2017-11-07T06:06:24.754Z,95.36
2017-11-07T06:07:24.775Z,95.08
2017-11-07T06:08:24.787Z,95.22
2017-11-07T06:09:24.821Z,94.84
2017-11-07T06:10:24.828Z,94.65
2017-11-07T06:11:24.838Z,94.84
2017-11-07T06:12:24.530Z,94.74
2017-11-07T06:13:24.869Z,94.08
2017-11-07T06:14:24.612Z,94.84
2017-11-07T06:15:24.900Z,94.89
2017-11-07T06:16:24.916Z,95.03
2017-11-07T06:17:24.612Z,94.65
2017-11-07T06:18:24.949Z,94.89
2017-11-07T06:19:24.644Z,94.65
2017-11-07T06:20:24.982Z,94.56
2017-11-07T06:21:25.000Z,94.93
2017-11-07T06:22:24.692Z,94.84
2017-11-07T06:23:25.031Z,94.65
2017-11-07T06:24:25.047Z,94.84
2017-11-07T06:25:24.741Z,94.84
2017-11-07T06:26:25.081Z,94.93
2017-11-07T06:27:24.772Z,94.56
2017-11-07T06:28:25.109Z,94.93
2017-11-07T06:29:25.187Z,94.93
2017-11-07T06:30:25.148Z,94.32
2017-11-07T06:31:25.166Z,94.98
2017-11-07T06:32:24.856Z,94.89
2017-11-07T06:33:24.871Z,95.27
2017-11-07T06:34:24.937Z,95.46
2017-11-07T06:35:24.904Z,95.27
2017-11-07T06:36:24.920Z,95.65
2017-11-07T06:37:25.259Z,95.55
2017-11-07T06:38:25.274Z,95.55
2017-11-07T06:39:25.020Z,95.46
2017-11-07T06:40:25.304Z,96.22
2017-11-07T06:41:25.332Z,96.03
2017-11-07T06:42:25.339Z,95.36
2017-11-07T06:43:25.354Z,95.27
2017-11-07T06:44:25.112Z,95.17
2017-11-07T06:45:25.078Z,95.94
2017-11-07T06:46:25.082Z,94.89
2017-11-07T06:47:25.094Z,94.79
2017-11-07T06:48:25.111Z,95.17
2017-11-07T06:49:25.127Z,95.08
2017-11-07T06:50:25.475Z,94.89
2017-11-07T06:51:25.500Z,94.7
2017-11-07T06:52:25.500Z,94.79
2017-11-07T06:53:25.514Z,94.98
2017-11-07T06:54:25.208Z,94.6
2017-11-07T06:55:25.551Z,94.7
2017-11-07T06:56:25.560Z,94.74
2017-11-07T06:57:25.589Z,94.65
2017-11-07T06:58:25.593Z,94.93
2017-11-07T06:59:25.340Z,94.18
2017-11-07T07:00:25.307Z,93.99
2017-11-07T07:01:25.645Z,94.93
2017-11-07T07:02:25.663Z,94.18
2017-11-07T07:03:25.675Z,93.99
2017-11-07T07:04:25.370Z,93.7
2017-11-07T07:05:25.387Z,93.7
2017-11-07T07:06:25.405Z,93.99
2017-11-07T07:07:25.750Z,93.7
2017-11-07T07:08:25.763Z,93.99
2017-11-07T07:09:25.766Z,93.6
2017-11-07T07:10:25.788Z,93.7
2017-11-07T07:11:25.837Z,93.99
2017-11-07T07:12:25.823Z,93.7
2017-11-07T07:13:25.854Z,93.99
2017-11-07T07:14:25.583Z,93.89
2017-11-07T07:15:25.870Z,93.79
2017-11-07T07:16:25.564Z,93.7
2017-11-07T07:17:25.906Z,93.89
2017-11-07T07:18:25.597Z,93.79
2017-11-07T07:19:25.616Z,93.6
2017-11-07T07:20:25.957Z,93.79
2017-11-07T07:21:25.647Z,92.94
2017-11-07T07:22:25.662Z,93.04
2017-11-07T07:23:26.001Z,93.23
2017-11-07T07:24:25.695Z,93.6
2017-11-07T07:25:25.711Z,93.51
2017-11-07T07:26:26.052Z,93.41
2017-11-07T07:27:26.065Z,93.99
2017-11-07T07:28:26.091Z,93.89
2017-11-07T07:29:26.147Z,93.41
2017-11-07T07:30:26.119Z,93.79
2017-11-07T07:31:26.131Z,93.7
2017-11-07T07:32:25.829Z,93.32
2017-11-07T07:33:25.846Z,93.41
2017-11-07T07:34:26.179Z,93.41
2017-11-07T07:35:25.888Z,93.13
2017-11-07T07:36:25.889Z,93.32
2017-11-07T07:37:26.230Z,93.23
2017-11-07T07:38:25.922Z,93.04
2017-11-07T07:39:26.260Z,93.6
2017-11-07T07:40:25.955Z,93.32
2017-11-07T07:41:26.294Z,94.08
2017-11-07T07:42:26.307Z,93.51
2017-11-07T07:43:26.014Z,93.13
2017-11-07T07:44:26.391Z,93.89
2017-11-07T07:45:26.358Z,94.08
2017-11-07T07:46:26.053Z,93.79
2017-11-07T07:47:26.388Z,93.79
2017-11-07T07:48:26.087Z,93.99
2017-11-07T07:49:26.421Z,94.08
2017-11-07T07:50:26.436Z,94.08
2017-11-07T07:51:26.132Z,93.89
2017-11-07T07:52:26.472Z,93.6
2017-11-07T07:53:26.165Z,93.89
2017-11-07T07:54:26.503Z,93.99
2017-11-07T07:55:26.521Z,92.85
2017-11-07T07:56:26.214Z,93.04
2017-11-07T07:57:26.234Z,93.23
2017-11-07T07:58:26.571Z,93.41
2017-11-07T07:59:26.637Z,93.6
2017-11-07T08:00:26.279Z,93.6
2017-11-07T08:01:26.624Z,93.32
2017-11-07T08:02:26.634Z,92.46
2017-11-07T08:03:26.651Z,92.94
2017-11-07T08:04:26.345Z,93.04
2017-11-07T08:05:26.694Z,93.6
2017-11-07T08:06:26.380Z,93.32
2017-11-07T08:07:26.719Z,93.41
2017-11-07T08:08:26.414Z,92.51
2017-11-07T08:09:26.430Z,92.61
2017-11-07T08:10:26.462Z,92.32
2017-11-07T08:11:26.783Z,91.94
2017-11-07T08:12:26.478Z,91.85
2017-11-07T08:13:26.814Z,91.8
2017-11-07T08:14:26.832Z,91.66
2017-11-07T08:15:26.529Z,91.37
2017-11-07T08:16:26.564Z,92.32
2017-11-07T08:17:26.564Z,91.42
2017-11-07T08:18:26.951Z,91.99
2017-11-07T08:19:26.922Z,91.89
2017-11-07T08:20:26.931Z,92.18
2017-11-07T08:21:26.950Z,91.99
2017-11-07T08:22:26.645Z,92.46
2017-11-07T08:23:26.982Z,92.27
2017-11-07T08:24:27.006Z,92.27
2017-11-07T08:25:26.692Z,92.66
2017-11-07T08:26:26.713Z,92.27
2017-11-07T08:27:27.058Z,92.56
2017-11-07T08:28:27.071Z,92.46
2017-11-07T08:29:27.082Z,92.27
2017-11-07T08:30:26.776Z,92.46
2017-11-07T08:31:26.795Z,92.27
2017-11-07T08:32:26.811Z,92.32
2017-11-07T08:33:26.884Z,91.71
2017-11-07T08:34:27.170Z,91.8
2017-11-07T08:35:27.186Z,91.8
2017-11-07T08:36:27.201Z,91.52
2017-11-07T08:37:27.230Z,91.8
2017-11-07T08:38:26.909Z,91.8
2017-11-07T08:39:26.928Z,91.8
2017-11-07T08:40:27.263Z,91.66
2017-11-07T08:41:27.283Z,92.13
2017-11-07T08:42:26.985Z,91.85
2017-11-07T08:43:27.320Z,92.32
2017-11-07T08:44:27.331Z,91.85
2017-11-07T08:45:27.028Z,92.03
2017-11-07T08:46:27.364Z,91.75
2017-11-07T08:47:27.061Z,91.8
2017-11-07T08:48:27.446Z,92.13
2017-11-07T08:49:27.422Z,92.22
2017-11-07T08:50:27.432Z,92.32
2017-11-07T08:51:27.447Z,92.03
2017-11-07T08:52:27.142Z,92.03
2017-11-07T08:53:27.478Z,91.75
2017-11-07T08:54:27.177Z,91.18
2017-11-07T08:55:27.513Z,91.56
2017-11-07T08:56:27.546Z,91.28
2017-11-07T08:57:27.544Z,91.66
2017-11-07T08:58:27.564Z,91.28
2017-11-07T08:59:27.578Z,91.37
2017-11-07T09:00:27.278Z,91.56
2017-11-07T09:01:27.295Z,91.08
2017-11-07T09:02:27.638Z,92.03
2017-11-07T09:03:27.700Z,91.85
2017-11-07T09:04:27.349Z,91.85
2017-11-07T09:05:27.680Z,90.99
2017-11-07T09:06:27.697Z,91.66
2017-11-07T09:07:27.714Z,91.66
2017-11-07T09:08:27.732Z,91.37
2017-11-07T09:09:27.427Z,91.28
2017-11-07T09:10:27.765Z,91.37
2017-11-07T09:11:27.790Z,91.37
2017-11-07T09:12:27.480Z,91.85
2017-11-07T09:13:27.814Z,91.47
2017-11-07T09:14:27.511Z,91.85
2017-11-07T09:15:27.530Z,91.66
2017-11-07T09:16:27.546Z,91.47
2017-11-07T09:17:27.563Z,90.99
2017-11-07T09:18:27.949Z,91.37
2017-11-07T09:19:27.595Z,91.37
2017-11-07T09:20:27.933Z,91.37
2017-11-07T09:21:27.951Z,91.28
2017-11-07T09:22:27.647Z,90.8
2017-11-07T09:23:27.985Z,90.61
2017-11-07T09:24:27.679Z,90.7
2017-11-07T09:25:28.020Z,91.37
2017-11-07T09:26:28.038Z,91.47
2017-11-07T09:27:27.732Z,91.08
2017-11-07T09:28:28.072Z,90.7
2017-11-07T09:29:28.092Z,90.42
2017-11-07T09:30:27.780Z,90.7
2017-11-07T09:31:28.120Z,90.8
2017-11-07T09:32:28.136Z,90.61
2017-11-07T09:33:27.884Z,90.7
2017-11-07T09:34:28.169Z,90.7
2017-11-07T09:35:27.866Z,90.61
2017-11-07T09:36:28.212Z,90.33
2017-11-07T09:37:28.222Z,90.37
2017-11-07T09:38:28.286Z,90.52
2017-11-07T09:39:28.252Z,90.23
2017-11-07T09:40:27.950Z,90.33
2017-11-07T09:41:27.973Z,90.42
2017-11-07T09:42:28.310Z,90.33
2017-11-07T09:43:28.322Z,90.23
2017-11-07T09:44:28.340Z,89.94
2017-11-07T09:45:28.365Z,89.61
2017-11-07T09:46:28.052Z,90.23
2017-11-07T09:47:28.400Z,89.94
2017-11-07T09:48:28.468Z,90.52
2017-11-07T09:49:28.104Z,90.33
2017-11-07T09:50:28.443Z,90.23
2017-11-07T09:51:28.459Z,90.23
2017-11-07T09:52:28.479Z,90.33
2017-11-07T09:53:28.171Z,90.23
2017-11-07T09:54:28.188Z,89.89
2017-11-07T09:55:28.212Z,89.42
2017-11-07T09:56:28.549Z,89.94
2017-11-07T09:57:28.559Z,89.51
2017-11-07T09:58:28.586Z,89.66
2017-11-07T09:59:28.595Z,89.75
2017-11-07T10:00:28.288Z,90.42
2017-11-07T10:01:28.307Z,90.23
2017-11-07T10:02:28.323Z,90.23
2017-11-07T10:03:28.391Z,90.52
2017-11-07T10:04:28.677Z,89.8
2017-11-07T10:05:28.386Z,90.37
2017-11-07T10:06:28.718Z,90.47
2017-11-07T10:07:28.408Z,89.14
2017-11-07T10:08:28.747Z,89.56
2017-11-07T10:09:28.772Z,89.89
2017-11-07T10:10:28.459Z,89.7
2017-11-07T10:11:28.474Z,89.42
2017-11-07T10:12:28.493Z,89.61
2017-11-07T10:13:28.852Z,90.04
2017-11-07T10:14:28.849Z,89.66
2017-11-07T10:15:28.862Z,89.61
2017-11-07T10:16:28.882Z,89.32
2017-11-07T10:17:28.579Z,89.51
2017-11-07T10:18:28.971Z,89.23
2017-11-07T10:19:28.933Z,89.14
2017-11-07T10:20:28.951Z,89.32
2017-11-07T10:21:28.647Z,89.28
2017-11-07T10:22:28.664Z,89.89
2017-11-07T10:23:29.002Z,89.8
2017-11-07T10:24:29.050Z,89.32
2017-11-07T10:25:28.715Z,89.32
2017-11-07T10:26:29.053Z,89.23
2017-11-07T10:27:28.750Z,89.28
2017-11-07T10:28:29.101Z,89.28
2017-11-07T10:29:29.108Z,89.56
2017-11-07T10:30:28.804Z,89.28
2017-11-07T10:31:28.818Z,89.85
2017-11-07T10:32:28.848Z,89.75
2017-11-07T10:33:28.901Z,89.7
2017-11-07T10:34:29.192Z,89.7
2017-11-07T10:35:29.208Z,90.08
2017-11-07T10:36:29.224Z,89.14
2017-11-07T10:37:29.241Z,89.51
2017-11-07T10:38:28.937Z,89.32
2017-11-07T10:39:28.956Z,89.51
2017-11-07T10:40:29.297Z,90.08
2017-11-07T10:41:29.312Z,89.32
2017-11-07T10:42:29.005Z,89.32
2017-11-07T10:43:29.026Z,89.23
2017-11-07T10:44:29.365Z,88.85
2017-11-07T10:45:29.392Z,88.85
2017-11-07T10:46:29.076Z,89.32
2017-11-07T10:47:29.440Z,88.75
2017-11-07T10:48:29.481Z,89.32
2017-11-07T10:49:29.459Z,88.85
2017-11-07T10:50:29.143Z,88.56
2017-11-07T10:51:29.482Z,88.85
2017-11-07T10:52:29.498Z,88.85
2017-11-07T10:53:29.516Z,88.85
2017-11-07T10:54:29.213Z,88.46
2017-11-07T10:55:29.555Z,88.56
2017-11-07T10:56:29.570Z,88.75
2017-11-07T10:57:29.586Z,88.85
2017-11-07T10:58:29.604Z,89.14
2017-11-07T10:59:29.628Z,89.04
2017-11-07T11:00:29.318Z,88.75
2017-11-07T11:01:29.663Z,88.09
2017-11-07T11:02:29.671Z,89.65
2017-11-07T11:03:29.752Z,89.18
2017-11-07T11:04:29.711Z,88.13
2017-11-07T11:05:29.405Z,87.85
2017-11-07T11:06:29.751Z,87.42
2017-11-07T11:07:29.439Z,86.9
2017-11-07T11:08:29.506Z,87.32
2017-11-07T11:09:29.486Z,87.27
2017-11-07T11:10:29.490Z,86.99
2017-11-07T11:11:29.509Z,87.23
2017-11-07T11:12:29.527Z,87.32
2017-11-07T11:13:29.545Z,87.71
2017-11-07T11:14:29.562Z,88.04
2017-11-07T11:15:29.584Z,88.04
2017-11-07T11:16:29.604Z,87.37
2017-11-07T11:17:29.934Z,87.46
2017-11-07T11:18:30.000Z,87.08
2017-11-07T11:19:29.978Z,86.99
2017-11-07T11:20:29.667Z,87.61
2017-11-07T11:21:29.683Z,87.52
2017-11-07T11:22:30.025Z,87.85
2017-11-07T11:23:30.042Z,87.56
2017-11-07T11:24:29.736Z,87.56
2017-11-07T11:25:30.076Z,87.85
2017-11-07T11:26:29.770Z,87.37
2017-11-07T11:27:30.125Z,87.27
2017-11-07T11:28:30.128Z,87.71
2017-11-07T11:29:29.824Z,87.56
2017-11-07T11:30:29.840Z,87.27
2017-11-07T11:31:30.185Z,87.04
2017-11-07T11:32:30.197Z,87.13
2017-11-07T11:33:30.216Z,87.42
2017-11-07T11:34:29.911Z,87.46
2017-11-07T11:35:29.926Z,87.04
2017-11-07T11:36:30.275Z,87.32
2017-11-07T11:37:30.281Z,87.42
2017-11-07T11:38:29.980Z,87.99
2017-11-07T11:39:30.317Z,87.8
2017-11-07T11:40:30.336Z,87.8
2017-11-07T11:41:30.354Z,87.99
2017-11-07T11:42:30.371Z,87.71
2017-11-07T11:43:30.386Z,87.23
2017-11-07T11:44:30.084Z,87.04
2017-11-07T11:45:30.109Z,87.23
2017-11-07T11:46:30.121Z,87.42
2017-11-07T11:47:30.462Z,87.42
2017-11-07T11:48:30.203Z,86.94
2017-11-07T11:49:30.497Z,86.94
2017-11-07T11:50:30.513Z,86.94
2017-11-07T11:51:30.525Z,87.8
2017-11-07T11:52:30.222Z,87.32
2017-11-07T11:53:30.240Z,87.04
2017-11-07T11:54:30.587Z,87.32
2017-11-07T11:55:30.597Z,86.85
2017-11-07T11:56:30.615Z,87.32
2017-11-07T11:57:30.313Z,87.13
2017-11-07T11:58:30.329Z,87.32
2017-11-07T11:59:30.669Z,87.13
2017-11-07T12:00:30.364Z,87.32
2017-11-07T12:01:30.700Z,87.27
2017-11-07T12:02:30.720Z,87.08
2017-11-07T12:03:30.465Z,86.7
2017-11-07T12:04:30.759Z,87.08
2017-11-07T12:05:30.772Z,86.99
2017-11-07T12:06:30.466Z,86.32
2017-11-07T12:07:30.487Z,86.22
2017-11-07T12:08:30.834Z,86.42
2017-11-07T12:09:30.847Z,86.51
2017-11-07T12:10:30.863Z,86.38
2017-11-07T12:11:30.878Z,86.7
2017-11-07T12:12:30.576Z,86.51
2017-11-07T12:13:30.915Z,86.47
2017-11-07T12:14:30.610Z,87.04
2017-11-07T12:15:30.631Z,87.23
2017-11-07T12:16:30.968Z,86.9
2017-11-07T12:17:30.668Z,86.7
2017-11-07T12:18:31.056Z,87.18
2017-11-07T12:19:30.699Z,86.7
2017-11-07T12:20:30.721Z,87.18
2017-11-07T12:21:30.733Z,86.22
2017-11-07T12:22:31.074Z,86.32
2017-11-07T12:23:31.099Z,86.7
2017-11-07T12:24:30.806Z,87.65
2017-11-07T12:25:31.134Z,86.8
2017-11-07T12:26:30.823Z,86.42
2017-11-07T12:27:31.168Z,86.61
2017-11-07T12:28:30.912Z,86.61
2017-11-07T12:29:31.203Z,86.61
2017-11-07T12:30:30.896Z,86.7
2017-11-07T12:31:31.234Z,85.75
2017-11-07T12:32:30.931Z,85.66
2017-11-07T12:33:31.320Z,86.32
2017-11-07T12:34:30.967Z,86.13
2017-11-07T12:35:31.312Z,86.22
2017-11-07T12:36:31.324Z,86.04
2017-11-07T12:37:31.364Z,86.22
2017-11-07T12:38:31.366Z,86.13
2017-11-07T12:39:31.376Z,86.42
2017-11-07T12:40:31.075Z,86.7
2017-11-07T12:41:31.422Z,86.13
2017-11-07T12:42:31.109Z,86.22
2017-11-07T12:43:31.129Z,86.32
2017-11-07T12:44:31.467Z,85.75
2017-11-07T12:45:31.165Z,85.94
2017-11-07T12:46:31.505Z,86.22
2017-11-07T12:47:31.518Z,86.32
2017-11-07T12:48:31.265Z,85.66
2017-11-07T12:49:31.554Z,85.56
2017-11-07T12:50:31.576Z,85.85
2017-11-07T12:51:31.595Z,85.18
2017-11-07T12:52:31.307Z,85.08
2017-11-07T12:53:31.343Z,85.28
2017-11-07T12:54:31.323Z,85.66
2017-11-07T12:55:31.340Z,86.04
2017-11-07T12:56:31.732Z,85.66